sim
Sign-in with your pilot id or email,
or register
Callsign
Passwort

Schedule Details

Flight Number: RYR1003 (2)
Departure: Warsaw Modlin Airport (EPMO) at 19:30
Arrival: Thessaloniki International Airport (LGTS) at 21:45
Route: Ryanair Passenger Schedule. Enter filed route here before submitting Pirep.

Weather Information
Getting current METAR information for EPMO 211700Z 31009KT 9999 -SHRA SCT033TCU BKN049 18/14 Q1027
Getting current METAR information for LGTS 211720Z 17006KT CAVOK 30/12 Q1016 NOSIG

Schedule Frequency

Route Map